Time;durP1;ratioP1;P1;durP2;ratioP2;P2;SDS_P1;SDS_P2;PMS_P1;PMS_P2;Temp;Humidity;BMP_temperature;BMP_pressure;BME280_temperature;BME280_humidity;BME280_pressure;Samples;Min_cycle;Max_cycle;Signal;HPM_P1;HPM_P2
2022/09/10 00:01:15;;;;;;;;;;;;;;;;;;4913821;29;19931;-87
2022/09/10 00:03:42;;;;;;;;;;;;;;;;;;4909017;28;19922;-87
2022/09/10 00:06:08;;;;;;;;;;;;;;;;;;4902369;29;20349;-87
2022/09/10 00:08:38;;;;;;;;;;;;;;;;;;4910409;28;19934;-87
2022/09/10 00:11:04;;;;;;;;;;;;;;;;;;4914532;28;19926;-87
2022/09/10 00:13:30;;;;;;;;;;;;;;;;;;4907263;28;19929;-87
2022/09/10 00:15:58;;;;;;;;;;;;;;;;;;4915544;28;20428;-87
2022/09/10 00:18:24;;;;;;;;;;;;;;;;;;4916150;29;19923;-87
2022/09/10 00:21:08;;;;;;;;;;;;;;;;;;4929543;28;19931;-87
2022/09/10 00:23:34;;;;;;;;;;;;;;;;;;4907169;28;21631;-87
2022/09/10 00:26:00;;;;;;;;;;;;;;;;;;4914318;29;19973;-86
2022/09/10 00:28:26;;;;;;;;;;;;;;;;;;4915695;29;20456;-87
2022/09/10 00:30:53;;;;;;;;;;;;;;;;;;4909431;29;19978;-87
2022/09/10 00:33:19;;;;;;;;;;;;;;;;;;4907879;29;20030;-87
2022/09/10 00:35:45;;;;;;;;;;;;;;;;;;4894178;28;20061;-87
2022/09/10 00:38:12;;;;;;;;;;;;;;;;;;4914608;29;19926;-87
2022/09/10 00:40:38;;;;;;;;;;;;;;;;;;4912096;29;19997;-87
2022/09/10 00:43:04;;;;;;;;;;;;;;;;;;4910920;28;20377;-87
2022/09/10 00:45:30;;;;;;;;;;;;;;;;;;4912527;28;19942;-87
2022/09/10 00:47:58;;;;;;;;;;;;;;;;;;4932594;28;20013;-87
2022/09/10 00:50:32;;;;;;;;;;;;;;;;;;4935662;28;19973;-87
2022/09/10 00:52:58;;;;;;;;;;;;;;;;;;4925791;28;19966;-87
2022/09/10 00:55:24;;;;;;;;;;;;;;;;;;4920412;29;20017;-87
2022/09/10 00:57:50;;;;;;;;;;;;;;;;;;4912753;28;19982;-87
2022/09/10 01:00:16;;;;;;;;;;;;;;;;;;4917431;29;20091;-87
2022/09/10 01:02:42;;;;;;;;;;;;;;;;;;4909473;28;19937;-87
2022/09/10 01:05:08;;;;;;;;;;;;;;;;;;4933652;28;20020;-87
2022/09/10 01:07:35;;;;;;;;;;;;;;;;;;4912979;28;19927;-87
2022/09/10 01:10:00;;;;;;;;;;;;;;;;;;4932958;28;19923;-87
2022/09/10 01:12:29;;;;;;;;;;;;;;;;;;4900565;29;20068;-87
2022/09/10 01:14:56;;;;;;;;;;;;;;;;;;4912647;29;19931;-87
2022/09/10 01:17:22;;;;;;;;;;;;;;;;;;4901303;28;19937;-87
2022/09/10 01:19:48;;;;;;;;;;;;;;;;;;4927490;28;21595;-87
2022/09/10 01:22:14;;;;;;;;;;;;;;;;;;4901241;29;20337;-87
2022/09/10 01:24:39;;;;;;;;;;;;;;;;;;4911985;28;19977;-87
2022/09/10 01:27:15;;;;;;;;;;;;;;;;;;4932140;28;19923;-87
2022/09/10 01:29:41;;;;;;;;;;;;;;;;;;4911032;28;19937;-86
2022/09/10 01:32:09;;;;;;;;;;;;;;;;;;4917958;29;20437;-87
2022/09/10 01:34:35;;;;;;;;;;;;;;;;;;4911295;28;19981;-87
2022/09/10 01:37:01;;;;;;;;;;;;;;;;;;4895130;29;19927;-87
2022/09/10 01:39:31;;;;;;;;;;;;;;;;;;4919530;29;19937;-86
2022/09/10 01:41:58;;;;;;;;;;;;;;;;;;4876201;29;19930;-87
2022/09/10 01:44:28;;;;;;;;;;;;;;;;;;4875664;29;19923;-87
2022/09/10 01:46:56;;;;;;;;;;;;;;;;;;4859944;29;19938;-87
2022/09/10 01:49:22;;;;;;;;;;;;;;;;;;4859758;29;19942;-87
2022/09/10 01:51:48;;;;;;;;;;;;;;;;;;4870718;29;22668;-87
2022/09/10 01:54:14;;;;;;;;;;;;;;;;;;4860617;29;19931;-87
2022/09/10 01:56:40;;;;;;;;;;;;;;;;;;4858109;29;20671;-86
2022/09/10 01:59:10;;;;;;;;;;;;;;;;;;4865906;29;19950;-87
2022/09/10 02:01:35;;;;;;;;;;;;;;;;;;4838128;29;19971;-87
2022/09/10 02:04:01;;;;;;;;;;;;;;;;;;4861023;29;19927;-87
2022/09/10 02:06:31;;;;;;;;;;;;;;;;;;4845825;29;19942;-87
2022/09/10 02:08:57;;;;;;;;;;;;;;;;;;4875792;29;20497;-87
2022/09/10 02:11:29;;;;;;;;;;;;;;;;;;4870683;29;19947;-87
2022/09/10 02:13:55;;;;;;;;;;;;;;;;;;4890413;28;19926;-87
2022/09/10 02:16:21;;;;;;;;;;;;;;;;;;4916913;28;19933;-87
2022/09/10 02:19:00;;;;;;;;;;;;;;;;;;4933425;28;19942;-87
2022/09/10 02:21:26;;;;;;;;;;;;;;;;;;4933542;28;19922;-88
2022/09/10 02:23:52;;;;;;;;;;;;;;;;;;4927145;28;19938;-87
2022/09/10 02:26:18;;;;;;;;;;;;;;;;;;4914368;29;20420;-87
2022/09/10 02:28:44;;;;;;;;;;;;;;;;;;4916127;28;20076;-87
2022/09/10 02:31:10;;;;;;;;;;;;;;;;;;4910154;29;19927;-87
2022/09/10 02:33:37;;;;;;;;;;;;;;;;;;4909732;29;20326;-87
2022/09/10 02:36:03;;;;;;;;;;;;;;;;;;4903890;29;19927;-87
2022/09/10 02:38:32;;;;;;;;;;;;;;;;;;4929382;28;19977;-87
2022/09/10 02:40:58;;;;;;;;;;;;;;;;;;4915952;29;20424;-87
2022/09/10 02:43:24;;;;;;;;;;;;;;;;;;4916776;29;19922;-87
2022/09/10 02:45:50;;;;;;;;;;;;;;;;;;4911964;28;19970;-87
2022/09/10 02:48:17;;;;;;;;;;;;;;;;;;4932164;28;20014;-88
2022/09/10 02:50:43;;;;;;;;;;;;;;;;;;4907008;28;19926;-87
2022/09/10 02:53:11;;;;;;;;;;;;;;;;;;4911670;29;19937;-88
2022/09/10 02:55:37;;;;;;;;;;;;;;;;;;4913720;28;20304;-88
2022/09/10 02:58:03;;;;;;;;;;;;;;;;;;4902005;28;19949;-88
2022/09/10 03:00:30;;;;;;;;;;;;;;;;;;4896480;29;19926;-87
2022/09/10 03:02:59;;;;;;;;;;;;;;;;;;4896931;28;20021;-87
2022/09/10 03:05:25;;;;;;;;;;;;;;;;;;4912823;29;20421;-87
2022/09/10 03:07:54;;;;;;;;;;;;;;;;;;4914281;28;19937;-87
2022/09/10 03:10:20;;;;;;;;;;;;;;;;;;4928450;28;20017;-87
2022/09/10 03:12:49;;;;;;;;;;;;;;;;;;4924377;28;20001;-87
2022/09/10 03:15:15;;;;;;;;;;;;;;;;;;4914872;29;20374;-88
2022/09/10 03:17:41;;;;;;;;;;;;;;;;;;4904668;28;20477;-87
2022/09/10 03:20:07;;;;;;;;;;;;;;;;;;4930554;28;20281;-87
2022/09/10 03:22:33;;;;;;;;;;;;;;;;;;4911252;28;19950;-87
2022/09/10 03:24:59;;;;;;;;;;;;;;;;;;4912673;29;19939;-87
2022/09/10 03:27:25;;;;;;;;;;;;;;;;;;4912041;28;19938;-87
2022/09/10 03:29:54;;;;;;;;;;;;;;;;;;4894937;28;19985;-87
2022/09/10 03:32:20;;;;;;;;;;;;;;;;;;4909145;29;20460;-87
2022/09/10 03:34:48;;;;;;;;;;;;;;;;;;4907466;28;19926;-87
2022/09/10 03:37:14;;;;;;;;;;;;;;;;;;4912322;29;20025;-87
2022/09/10 03:39:43;;;;;;;;;;;;;;;;;;4925491;28;19922;-87
2022/09/10 03:42:10;;;;;;;;;;;;;;;;;;4917108;29;19970;-88
2022/09/10 03:44:35;;;;;;;;;;;;;;;;;;4930292;28;19922;-87
2022/09/10 03:47:01;;;;;;;;;;;;;;;;;;4917275;29;19979;-88
2022/09/10 03:49:31;;;;;;;;;;;;;;;;;;4901234;29;19989;-87
2022/09/10 03:51:57;;;;;;;;;;;;;;;;;;4903075;28;19978;-87
2022/09/10 03:54:36;;;;;;;;;;;;;;;;;;4926559;28;20285;-87
2022/09/10 03:57:02;;;;;;;;;;;;;;;;;;4924289;29;19965;-87
2022/09/10 03:59:28;;;;;;;;;;;;;;;;;;4914997;28;19952;-87
2022/09/10 04:01:56;;;;;;;;;;;;;;;;;;4898226;29;19994;-87
2022/09/10 04:04:22;;;;;;;;;;;;;;;;;;4918769;29;20015;-87
2022/09/10 04:06:49;;;;;;;;;;;;;;;;;;4914221;29;19946;-87
2022/09/10 04:09:15;;;;;;;;;;;;;;;;;;4914715;29;19969;-87
2022/09/10 04:11:41;;;;;;;;;;;;;;;;;;4904426;28;20025;-87
2022/09/10 04:14:07;;;;;;;;;;;;;;;;;;4919921;29;20005;-87
2022/09/10 04:16:34;;;;;;;;;;;;;;;;;;4915601;28;20006;-88
2022/09/10 04:19:00;;;;;;;;;;;;;;;;;;4923084;29;19973;-87
2022/09/10 04:21:26;;;;;;;;;;;;;;;;;;4905235;29;19946;-87
2022/09/10 04:23:52;;;;;;;;;;;;;;;;;;4916246;29;19923;-87
2022/09/10 04:26:26;;;;;;;;;;;;;;;;;;4902107;29;20021;-87
2022/09/10 04:28:55;;;;;;;;;;;;;;;;;;4919704;29;19929;-87
2022/09/10 04:31:23;;;;;;;;;;;;;;;;;;4915102;28;21368;-87
2022/09/10 04:33:49;;;;;;;;;;;;;;;;;;4914134;28;19968;-88
2022/09/10 04:36:16;;;;;;;;;;;;;;;;;;4914336;29;19926;-88
2022/09/10 04:38:44;;;;;;;;;;;;;;;;;;4929310;28;19982;-87
2022/09/10 04:41:11;;;;;;;;;;;;;;;;;;4920616;29;19930;-87
2022/09/10 04:43:39;;;;;;;;;;;;;;;;;;4934803;28;19997;-87
2022/09/10 04:46:05;;;;;;;;;;;;;;;;;;4940349;28;20344;-87
2022/09/10 04:48:31;;;;;;;;;;;;;;;;;;4931395;28;19930;-87
2022/09/10 04:50:57;;;;;;;;;;;;;;;;;;4937372;28;19926;-87
2022/09/10 04:53:24;;;;;;;;;;;;;;;;;;4915648;28;20575;-87
2022/09/10 04:55:51;;;;;;;;;;;;;;;;;;4916144;28;19938;-87
2022/09/10 04:58:18;;;;;;;;;;;;;;;;;;4919913;29;19922;-87
2022/09/10 05:00:44;;;;;;;;;;;;;;;;;;4910194;28;19926;-87
2022/09/10 05:03:12;;;;;;;;;;;;;;;;;;4934329;28;19926;-87
2022/09/10 05:05:38;;;;;;;;;;;;;;;;;;4900886;28;19949;-87
2022/09/10 05:08:07;;;;;;;;;;;;;;;;;;4919481;29;20374;-87
2022/09/10 05:10:34;;;;;;;;;;;;;;;;;;4911268;28;19922;-87
2022/09/10 05:13:06;;;;;;;;;;;;;;;;;;4920131;29;20025;-87
2022/09/10 05:15:34;;;;;;;;;;;;;;;;;;4898917;29;19980;-87
2022/09/10 05:18:00;;;;;;;;;;;;;;;;;;4900595;29;19938;-87
2022/09/10 05:20:29;;;;;;;;;;;;;;;;;;4921540;29;19933;-87
2022/09/10 05:23:01;;;;;;;;;;;;;;;;;;4920714;29;20707;-87
2022/09/10 05:25:32;;;;;;;;;;;;;;;;;;4919286;29;20022;-87
2022/09/10 05:27:59;;;;;;;;;;;;;;;;;;4937565;28;20280;-87
2022/09/10 05:30:26;;;;;;;;;;;;;;;;;;4921333;29;19966;-87
2022/09/10 05:32:52;;;;;;;;;;;;;;;;;;4910345;28;19930;-87
2022/09/10 05:35:20;;;;;;;;;;;;;;;;;;4907833;29;19986;-87
2022/09/10 05:37:46;;;;;;;;;;;;;;;;;;4918530;28;19926;-88
2022/09/10 05:40:12;;;;;;;;;;;;;;;;;;4907506;29;19974;-87
2022/09/10 05:42:38;;;;;;;;;;;;;;;;;;4905349;28;20647;-87
2022/09/10 05:45:10;;;;;;;;;;;;;;;;;;4913167;29;20289;-87
2022/09/10 05:47:36;;;;;;;;;;;;;;;;;;4921208;29;19923;-87
2022/09/10 05:50:03;;;;;;;;;;;;;;;;;;4925591;29;19930;-87
2022/09/10 05:52:31;;;;;;;;;;;;;;;;;;4917967;28;21395;-87
2022/09/10 05:54:57;;;;;;;;;;;;;;;;;;4933663;28;19927;-87
2022/09/10 05:57:23;;;;;;;;;;;;;;;;;;4922992;29;19923;-87
2022/09/10 05:59:49;;;;;;;;;;;;;;;;;;4916551;28;20056;-87
2022/09/10 06:02:15;;;;;;;;;;;;;;;;;;4890310;29;19938;-88
2022/09/10 06:04:41;;;;;;;;;;;;;;;;;;4895131;29;19931;-88
2022/09/10 06:07:08;;;;;;;;;;;;;;;;;;4897627;29;19923;-87
2022/09/10 06:09:33;;;;;;;;;;;;;;;;;;4895942;29;19927;-88
2022/09/10 06:11:59;;;;;;;;;;;;;;;;;;4898080;29;19939;-87
2022/09/10 06:14:25;;;;;;;;;;;;;;;;;;4899230;29;20076;-87
2022/09/10 06:16:53;;;;;;;;;;;;;;;;;;4892598;29;19994;-87
2022/09/10 06:19:25;;;;;;;;;;;;;;;;;;4896746;29;19979;-87
2022/09/10 06:21:54;;;;;;;;;;;;;;;;;;4893073;29;19931;-87
2022/09/10 06:24:19;;;;;;;;;;;;;;;;;;4881112;29;20002;-87
2022/09/10 06:26:45;;;;;;;;;;;;;;;;;;4896527;29;20083;-87
2022/09/10 06:29:11;;;;;;;;;;;;;;;;;;4898933;29;19927;-87
2022/09/10 06:31:46;;;;;;;;;;;;;;;;;;4895951;29;19935;-87
2022/09/10 06:34:18;;;;;;;;;;;;;;;;;;4898504;29;20375;-87
2022/09/10 06:36:45;;;;;;;;;;;;;;;;;;4895719;29;19923;-87
2022/09/10 06:39:13;;;;;;;;;;;;;;;;;;4882395;29;19923;-87
2022/09/10 06:41:41;;;;;;;;;;;;;;;;;;4892102;29;19933;-87
2022/09/10 06:44:08;;;;;;;;;;;;;;;;;;4897504;29;19927;-87
2022/09/10 06:46:35;;;;;;;;;;;;;;;;;;4890559;29;19953;-87
2022/09/10 06:49:02;;;;;;;;;;;;;;;;;;4899764;29;19927;-87
2022/09/10 06:51:28;;;;;;;;;;;;;;;;;;4900057;29;20381;-87
2022/09/10 06:53:54;;;;;;;;;;;;;;;;;;4901045;29;19970;-87
2022/09/10 06:56:20;;;;;;;;;;;;;;;;;;4893369;29;19927;-87
2022/09/10 06:58:46;;;;;;;;;;;;;;;;;;4889964;29;20389;-87
2022/09/10 07:01:19;;;;;;;;;;;;;;;;;;4904805;28;19930;-86
2022/09/10 07:03:45;;;;;;;;;;;;;;;;;;4931604;28;21111;-86
2022/09/10 07:06:12;;;;;;;;;;;;;;;;;;4916641;29;19935;-87
2022/09/10 07:08:38;;;;;;;;;;;;;;;;;;4913161;28;20437;-87
2022/09/10 07:11:04;;;;;;;;;;;;;;;;;;4921731;29;20358;-87
2022/09/10 07:13:30;;;;;;;;;;;;;;;;;;4913187;28;20025;-87
2022/09/10 07:15:56;;;;;;;;;;;;;;;;;;4933065;28;20326;-87
2022/09/10 07:18:23;;;;;;;;;;;;;;;;;;4917530;29;19926;-87
2022/09/10 07:20:51;;;;;;;;;;;;;;;;;;4896459;28;19939;-87
2022/09/10 07:23:17;;;;;;;;;;;;;;;;;;4918041;29;20385;-87
2022/09/10 07:25:46;;;;;;;;;;;;;;;;;;4912469;29;19935;-87
2022/09/10 07:28:12;;;;;;;;;;;;;;;;;;4914973;29;19930;-87
2022/09/10 07:30:38;;;;;;;;;;;;;;;;;;4911191;28;20404;-87
2022/09/10 07:33:07;;;;;;;;;;;;;;;;;;4918071;29;19930;-88
2022/09/10 07:35:33;;;;;;;;;;;;;;;;;;4914871;28;20347;-88
2022/09/10 07:37:59;;;;;;;;;;;;;;;;;;4911136;29;20366;-88
2022/09/10 07:40:31;;;;;;;;;;;;;;;;;;4910525;29;20022;-88
2022/09/10 07:43:14;;;;;;;;;;;;;;;;;;4909591;29;19936;-88
2022/09/10 07:45:40;;;;;;;;;;;;;;;;;;4904489;28;19937;-87
2022/09/10 07:48:12;;;;;;;;;;;;;;;;;;4934835;28;19929;-88
2022/09/10 07:50:38;;;;;;;;;;;;;;;;;;4926543;28;21042;-88
2022/09/10 07:53:05;;;;;;;;;;;;;;;;;;4921559;29;20472;-87
2022/09/10 07:55:31;;;;;;;;;;;;;;;;;;4930464;28;19976;-88
2022/09/10 07:57:59;;;;;;;;;;;;;;;;;;4928173;28;19930;-88
2022/09/10 08:00:25;;;;;;;;;;;;;;;;;;4930348;28;19993;-87
2022/09/10 08:02:53;;;;;;;;;;;;;;;;;;4924216;28;20044;-88
2022/09/10 08:05:20;;;;;;;;;;;;;;;;;;4915636;29;19941;-87
2022/09/10 08:07:46;;;;;;;;;;;;;;;;;;4913431;28;19926;-87
2022/09/10 08:10:12;;;;;;;;;;;;;;;;;;4916505;29;20070;-87
2022/09/10 08:12:38;;;;;;;;;;;;;;;;;;4887941;29;19938;-87
2022/09/10 08:15:04;;;;;;;;;;;;;;;;;;4914691;29;20433;-86
2022/09/10 08:17:35;;;;;;;;;;;;;;;;;;4926708;28;19926;-87
2022/09/10 08:20:06;;;;;;;;;;;;;;;;;;4907723;29;19973;-86
2022/09/10 08:22:33;;;;;;;;;;;;;;;;;;4907434;28;19944;-87
2022/09/10 08:24:59;;;;;;;;;;;;;;;;;;4916449;29;19937;-87
2022/09/10 08:27:25;;;;;;;;;;;;;;;;;;4904718;28;19941;-87
2022/09/10 08:29:52;;;;;;;;;;;;;;;;;;4908560;28;19931;-87
2022/09/10 08:32:18;;;;;;;;;;;;;;;;;;4913795;29;19927;-87
2022/09/10 08:34:44;;;;;;;;;;;;;;;;;;4907855;28;19923;-87
2022/09/10 08:37:10;;;;;;;;;;;;;;;;;;4918130;29;20954;-87
2022/09/10 08:39:36;;;;;;;;;;;;;;;;;;4892743;29;19969;-87
2022/09/10 08:42:02;;;;;;;;;;;;;;;;;;4914353;28;19922;-86
2022/09/10 08:44:31;;;;;;;;;;;;;;;;;;4932418;28;20402;-86
2022/09/10 08:46:57;;;;;;;;;;;;;;;;;;4906778;29;20469;-87
2022/09/10 08:49:23;;;;;;;;;;;;;;;;;;4902755;29;20370;-87
2022/09/10 08:51:49;;;;;;;;;;;;;;;;;;4903018;28;21129;-86
2022/09/10 08:54:15;;;;;;;;;;;;;;;;;;4930045;28;19934;-87
2022/09/10 08:56:41;;;;;;;;;;;;;;;;;;4885562;28;19930;-87
2022/09/10 08:59:10;;;;;;;;;;;;;;;;;;4904048;29;19926;-87
2022/09/10 09:01:42;;;;;;;;;;;;;;;;;;4901602;29;19990;-87
2022/09/10 09:04:10;;;;;;;;;;;;;;;;;;4928549;28;19989;-87
2022/09/10 09:06:36;;;;;;;;;;;;;;;;;;4905818;28;19938;-87
2022/09/10 09:09:02;;;;;;;;;;;;;;;;;;4926143;28;19934;-87
2022/09/10 09:11:28;;;;;;;;;;;;;;;;;;4919455;28;19931;-87
2022/09/10 09:13:54;;;;;;;;;;;;;;;;;;4927312;28;20759;-87
2022/09/10 09:16:20;;;;;;;;;;;;;;;;;;4895493;29;20029;-87
2022/09/10 09:18:49;;;;;;;;;;;;;;;;;;4905771;28;19927;-87
2022/09/10 09:21:16;;;;;;;;;;;;;;;;;;4904851;28;19923;-87
2022/09/10 09:23:42;;;;;;;;;;;;;;;;;;4900490;28;21099;-87
2022/09/10 09:26:08;;;;;;;;;;;;;;;;;;4886101;28;19937;-87
2022/09/10 09:28:40;;;;;;;;;;;;;;;;;;4902385;28;19929;-87
2022/09/10 09:31:07;;;;;;;;;;;;;;;;;;4908468;28;19993;-87
2022/09/10 09:33:35;;;;;;;;;;;;;;;;;;4925906;28;19934;-86
2022/09/10 09:36:04;;;;;;;;;;;;;;;;;;4898495;28;19937;-86
2022/09/10 09:38:32;;;;;;;;;;;;;;;;;;4900330;28;19937;-87
2022/09/10 09:41:01;;;;;;;;;;;;;;;;;;4899485;28;19986;-87
2022/09/10 09:43:29;;;;;;;;;;;;;;;;;;4914527;29;19965;-87
2022/09/10 09:45:55;;;;;;;;;;;;;;;;;;4917230;29;19988;-87
2022/09/10 09:48:23;;;;;;;;;;;;;;;;;;4909429;28;19981;-87
2022/09/10 09:50:49;;;;;;;;;;;;;;;;;;4904356;28;21396;-87
2022/09/10 09:53:15;;;;;;;;;;;;;;;;;;4913917;28;20049;-87
2022/09/10 09:55:41;;;;;;;;;;;;;;;;;;4897185;28;19969;-87
2022/09/10 09:58:10;;;;;;;;;;;;;;;;;;4923231;28;19981;-86
2022/09/10 10:00:36;;;;;;;;;;;;;;;;;;4899109;28;19930;-86
2022/09/10 10:03:03;;;;;;;;;;;;;;;;;;4891737;29;19927;-86
2022/09/10 10:05:29;;;;;;;;;;;;;;;;;;4908262;28;20393;-86
2022/09/10 10:07:55;;;;;;;;;;;;;;;;;;4907857;29;19937;-87
2022/09/10 10:10:21;;;;;;;;;;;;;;;;;;4912156;29;19929;-86
2022/09/10 10:12:47;;;;;;;;;;;;;;;;;;4907853;28;19966;-87
2022/09/10 10:15:13;;;;;;;;;;;;;;;;;;4899441;29;19933;-87
2022/09/10 10:17:43;;;;;;;;;;;;;;;;;;4903419;28;20337;-87
2022/09/10 10:20:09;;;;;;;;;;;;;;;;;;4925512;28;19938;-86
2022/09/10 10:22:35;;;;;;;;;;;;;;;;;;4910060;28;19930;-87
2022/09/10 10:25:01;;;;;;;;;;;;;;;;;;4913452;28;20037;-87
2022/09/10 10:27:30;;;;;;;;;;;;;;;;;;4912117;29;20441;-86
2022/09/10 10:29:56;;;;;;;;;;;;;;;;;;4910075;29;19922;-86
2022/09/10 10:32:22;;;;;;;;;;;;;;;;;;4926368;28;19931;-86
2022/09/10 10:34:49;;;;;;;;;;;;;;;;;;4893700;28;19930;-87
2022/09/10 10:37:15;;;;;;;;;;;;;;;;;;4930561;28;20291;-87
2022/09/10 10:39:41;;;;;;;;;;;;;;;;;;4927909;28;19927;-86
2022/09/10 10:42:12;;;;;;;;;;;;;;;;;;4924363;28;19972;-86
2022/09/10 10:44:48;;;;;;;;;;;;;;;;;;4920572;28;19949;-86
2022/09/10 10:47:14;;;;;;;;;;;;;;;;;;4914367;28;19988;-87
2022/09/10 10:49:42;;;;;;;;;;;;;;;;;;4902462;28;19923;-87
2022/09/10 10:52:12;;;;;;;;;;;;;;;;;;4930897;28;20395;-87
2022/09/10 10:54:39;;;;;;;;;;;;;;;;;;4907512;28;20040;-87
2022/09/10 10:57:18;;;;;;;;;;;;;;;;;;;;;
2022/09/10 11:00:08;;;;;;;;;;;;;;;;;;4928025;28;19930;-87
2022/09/10 11:02:40;;;;;;;;;;;;;;;;;;4903586;29;19938;-87
2022/09/10 11:05:11;;;;;;;;;;;;;;;;;;4915864;29;19935;-87
2022/09/10 11:07:40;;;;;;;;;;;;;;;;;;4906030;29;19973;-87
2022/09/10 11:10:22;;;;;;;;;;;;;;;;;;;;;
2022/09/10 11:13:07;;;;;;;;;;;;;;;;;;;;;
2022/09/10 11:15:36;;;;;;;;;;;;;;;;;;4908525;29;19926;-87
2022/09/10 11:18:14;;;;;;;;;;;;;;;;;;4911203;29;20374;-87
2022/09/10 11:20:43;;;;;;;;;;;;;;;;;;4927622;28;19930;-87
2022/09/10 11:23:17;;;;;;;;;;;;;;;;;;4912737;29;19930;-87
2022/09/10 11:26:12;;;;;;;;;;;;;;;;;;;;;
2022/09/10 11:28:40;;;;;;;;;;;;;;;;;;4905655;29;20430;-87
2022/09/10 11:31:09;;;;;;;;;;;;;;;;;;4897392;29;20039;-87
2022/09/10 11:33:38;;;;;;;;;;;;;;;;;;4901907;29;20017;-87
2022/09/10 11:36:38;;;;;;;;;;;;;;;;;;4919061;29;20314;-87
2022/09/10 11:39:12;;;;;;;;;;;;;;;;;;4892383;29;19927;-88
2022/09/10 11:44:47;;;;;;;;;;;;;;;;;;4875411;29;19945;-88
2022/09/10 11:47:22;;;;;;;;;;;;;;;;;;4879890;29;23500;-88
2022/09/10 11:49:58;;;;;;;;;;;;;;;;;;4869290;29;20579;-88
2022/09/10 11:52:46;;;;;;;;;;;;;;;;;;4892546;29;19965;-89
2022/09/10 11:55:24;;;;;;;;;;;;;;;;;;;;;
2022/09/10 11:58:03;;;;;;;;;;;;;;;;;;;;;
2022/09/10 12:00:47;;;;;;;;;;;;;;;;;;4889019;29;19927;-88
2022/09/10 12:03:23;;;;;;;;;;;;;;;;;;4875296;29;20753;-88
2022/09/10 12:06:10;;;;;;;;;;;;;;;;;;4874740;29;20343;-89
2022/09/10 12:08:47;;;;;;;;;;;;;;;;;;4852289;29;20024;-88
2022/09/10 12:27:18;;;;;;;;;;;;;;;;;;6268866;22;1990536;-85
2022/09/10 12:29:44;;;;;;;;;;;;;;;;;;6266505;22;19996;-86
2022/09/10 12:32:11;;;;;;;;;;;;;;;;;;6269506;22;19923;-86
2022/09/10 12:34:37;;;;;;;;;;;;;;;;;;6235589;22;19920;-86
2022/09/10 12:37:03;;;;;;;;;;;;;;;;;;6212668;23;19945;-87
2022/09/10 12:39:28;;;;;;;;;;;;;;;;;;6209444;23;19920;-86
2022/09/10 12:41:54;;;;;;;;;;;;;;;;;;6213059;23;20428;-86
2022/09/10 12:44:20;;;;;;;;;;;;;;;;;;6213903;23;20234;-86
2022/09/10 12:46:46;;;;;;;;;;;;;;;;;;6211809;23;19919;-86
2022/09/10 12:49:12;;;;;;;;;;;;;;;;;;6211805;23;19920;-86
2022/09/10 12:51:38;;;;;;;;;;;;;;;;;;6210187;23;19920;-86
2022/09/10 12:54:04;;;;;;;;;;;;;;;;;;6211419;23;19920;-86
2022/09/10 12:56:30;;;;;;;;;;;;;;;;;;6209973;23;19919;-86
2022/09/10 12:58:57;;;;;;;;;;;;;;;;;;6212160;23;20319;-86
2022/09/10 13:01:23;;;;;;;;;;;;;;;;;;6236016;23;19926;-87
2022/09/10 13:03:49;;;;;;;;;;;;;;;;;;6209031;23;20134;-86
2022/09/10 13:06:15;;;;;;;;;;;;;;;;;;6213624;23;19919;-87
2022/09/10 13:08:41;;;;;;;;;;;;;;;;;;6234391;23;19919;-86
2022/09/10 13:11:07;;;;;;;;;;;;;;;;;;6237158;23;19939;-86
2022/09/10 13:13:33;;;;;;;;;;;;;;;;;;6234815;23;19919;-85
2022/09/10 13:15:59;;;;;;;;;;;;;;;;;;6238186;23;19962;-86
2022/09/10 13:18:25;;;;;;;;;;;;;;;;;;6214579;23;20257;-87
2022/09/10 13:20:51;;;;;;;;;;;;;;;;;;6234810;23;20256;-87
2022/09/10 13:23:18;;;;;;;;;;;;;;;;;;6233227;23;19919;-87
2022/09/10 13:25:44;;;;;;;;;;;;;;;;;;6227087;23;20403;-86
2022/09/10 13:28:11;;;;;;;;;;;;;;;;;;6225306;22;19927;-87
2022/09/10 13:30:37;;;;;;;;;;;;;;;;;;6235922;22;19930;-86
2022/09/10 13:33:03;;;;;;;;;;;;;;;;;;6238614;22;19919;-86
2022/09/10 13:35:29;;;;;;;;;;;;;;;;;;6236282;22;19915;-86
2022/09/10 13:37:55;;;;;;;;;;;;;;;;;;6261682;22;19923;-86
2022/09/10 13:40:21;;;;;;;;;;;;;;;;;;6262171;22;19919;-87
2022/09/10 13:42:47;;;;;;;;;;;;;;;;;;6260805;22;19968;-86
2022/09/10 13:45:13;;;;;;;;;;;;;;;;;;6233940;22;19919;-86
2022/09/10 13:47:39;;;;;;;;;;;;;;;;;;6254492;22;20263;-86
2022/09/10 13:50:05;;;;;;;;;;;;;;;;;;6238116;22;20415;-85
2022/09/10 13:52:31;;;;;;;;;;;;;;;;;;6234657;22;20251;-86
2022/09/10 13:54:57;;;;;;;;;;;;;;;;;;6237825;22;19916;-87
2022/09/10 13:57:23;;;;;;;;;;;;;;;;;;6238256;22;19924;-87
2022/09/10 13:59:49;;;;;;;;;;;;;;;;;;6235027;22;19920;-86
2022/09/10 14:02:18;;;;;;;;;;;;;;;;;;6259243;22;19926;-86
2022/09/10 14:04:44;;;;;;;;;;;;;;;;;;6261471;22;20225;-86
2022/09/10 14:07:14;;;;;;;;;;;;;;;;;;6236902;22;20369;-86
2022/09/10 14:09:40;;;;;;;;;;;;;;;;;;6234936;22;20348;-86
2022/09/10 14:12:07;;;;;;;;;;;;;;;;;;6237584;22;19919;-86
2022/09/10 14:14:33;;;;;;;;;;;;;;;;;;6260520;22;20370;-86
2022/09/10 14:16:59;;;;;;;;;;;;;;;;;;6232627;22;19919;-86
2022/09/10 14:19:25;;;;;;;;;;;;;;;;;;6228403;22;19919;-86
2022/09/10 14:21:51;;;;;;;;;;;;;;;;;;6224510;22;19919;-86
2022/09/10 14:24:17;;;;;;;;;;;;;;;;;;6229049;22;19972;-86
2022/09/10 14:26:43;;;;;;;;;;;;;;;;;;6230276;22;20335;-86
2022/09/10 14:29:09;;;;;;;;;;;;;;;;;;6257727;22;19930;-86
2022/09/10 14:31:35;;;;;;;;;;;;;;;;;;6254086;22;19923;-86
2022/09/10 14:34:01;;;;;;;;;;;;;;;;;;6231577;22;19965;-86
2022/09/10 14:36:27;;;;;;;;;;;;;;;;;;6235577;22;19938;-86
2022/09/10 14:38:54;;;;;;;;;;;;;;;;;;6234259;22;20396;-87
2022/09/10 14:41:20;;;;;;;;;;;;;;;;;;6260880;22;20061;-87
2022/09/10 14:43:46;;;;;;;;;;;;;;;;;;6231779;22;20292;-87
2022/09/10 14:46:12;;;;;;;;;;;;;;;;;;6260436;22;19984;-87
2022/09/10 14:48:38;;;;;;;;;;;;;;;;;;6256433;22;19915;-87
2022/09/10 14:51:04;;;;;;;;;;;;;;;;;;6258727;22;19946;-87
2022/09/10 14:53:30;;;;;;;;;;;;;;;;;;6257349;22;20352;-87
2022/09/10 14:55:56;;;;;;;;;;;;;;;;;;6259321;22;19927;-87
2022/09/10 14:58:22;;;;;;;;;;;;;;;;;;6261514;22;19966;-88
2022/09/10 15:00:50;;;;;;;;;;;;;;;;;;6258332;22;20238;-87
2022/09/10 15:03:16;;;;;;;;;;;;;;;;;;6234372;22;20344;-87
2022/09/10 15:11:52;;;;;;;;;;;;;;;;;;6257310;22;20362;-95
2022/09/10 15:14:44;;;;;;;;;;;;;;;;;;6220152;22;19919;-96
2022/09/10 15:20:06;;;;;;;;;;;;;;;;;;6231047;23;19928;-95
2022/09/10 15:22:40;;;;;;;;;;;;;;;;;;6175833;23;20001;-95
2022/09/10 15:25:19;;;;;;;;;;;;;;;;;;;;;
2022/09/10 15:28:18;;;;;;;;;;;;;;;;;;6256190;22;19923;-95
2022/09/10 15:31:07;;;;;;;;;;;;;;;;;;6160663;23;20404;-95
2022/09/10 15:33:45;;;;;;;;;;;;;;;;;;6142349;23;20349;-96
2022/09/10 15:42:26;;;;;;;;;;;;;;;;;;6144460;23;20324;-96
2022/09/10 15:51:23;;;;;;;;;;;;;;;;;;;;;
2022/09/10 16:00:43;;;;;;;;;;;;;;;;;;;;;
2022/09/10 16:03:21;;;;;;;;;;;;;;;;;;6201220;23;19920;-96
2022/09/10 16:06:02;;;;;;;;;;;;;;;;;;6172624;23;20002;-95
2022/09/10 16:08:49;;;;;;;;;;;;;;;;;;6224170;22;20358;-96
2022/09/10 16:11:15;;;;;;;;;;;;;;;;;;6232448;22;19923;-95
2022/09/10 16:13:44;;;;;;;;;;;;;;;;;;6231561;22;20390;-95
2022/09/10 16:16:10;;;;;;;;;;;;;;;;;;6234139;22;19923;-96
2022/09/10 16:18:36;;;;;;;;;;;;;;;;;;6232558;22;19950;-94
2022/09/10 16:21:02;;;;;;;;;;;;;;;;;;6238090;22;20328;-96
2022/09/10 16:23:28;;;;;;;;;;;;;;;;;;6236569;22;19955;-95
2022/09/10 16:25:58;;;;;;;;;;;;;;;;;;6239378;22;19915;-95
2022/09/10 16:28:26;;;;;;;;;;;;;;;;;;6237200;22;19954;-95
2022/09/10 16:30:52;;;;;;;;;;;;;;;;;;6210562;22;20290;-95
2022/09/10 16:33:18;;;;;;;;;;;;;;;;;;6213860;22;19922;-95
2022/09/10 16:35:46;;;;;;;;;;;;;;;;;;6207780;23;19947;-96
2022/09/10 16:38:13;;;;;;;;;;;;;;;;;;6207963;23;20081;-95
2022/09/10 16:40:39;;;;;;;;;;;;;;;;;;6203042;23;19915;-94
2022/09/10 16:43:05;;;;;;;;;;;;;;;;;;6207652;23;19923;-96
2022/09/10 16:45:34;;;;;;;;;;;;;;;;;;6202754;23;19926;-95
2022/09/10 16:48:00;;;;;;;;;;;;;;;;;;6205775;23;20232;-95
2022/09/10 16:50:26;;;;;;;;;;;;;;;;;;6207405;23;19991;-96
2022/09/10 16:52:53;;;;;;;;;;;;;;;;;;6205717;23;19919;-96
2022/09/10 16:55:21;;;;;;;;;;;;;;;;;;6208234;23;19958;-95
2022/09/10 16:57:47;;;;;;;;;;;;;;;;;;6203440;23;19919;-96
2022/09/10 17:00:15;;;;;;;;;;;;;;;;;;6207327;23;19927;-95
2022/09/10 17:02:43;;;;;;;;;;;;;;;;;;6206716;23;19923;-96
2022/09/10 17:05:10;;;;;;;;;;;;;;;;;;6206111;23;19961;-96
2022/09/10 17:07:36;;;;;;;;;;;;;;;;;;6198127;23;19930;-96
2022/09/10 17:10:05;;;;;;;;;;;;;;;;;;6211634;23;20248;-96
2022/09/10 17:12:34;;;;;;;;;;;;;;;;;;6206767;23;20015;-96
2022/09/10 17:15:00;;;;;;;;;;;;;;;;;;6210177;23;20368;-95
2022/09/10 17:17:26;;;;;;;;;;;;;;;;;;6204483;23;19923;-95
2022/09/10 17:19:52;;;;;;;;;;;;;;;;;;6204699;23;20331;-95
2022/09/10 17:22:18;;;;;;;;;;;;;;;;;;6206186;23;19922;-95
2022/09/10 17:24:44;;;;;;;;;;;;;;;;;;6202611;23;19920;-96
2022/09/10 17:27:10;;;;;;;;;;;;;;;;;;6217649;22;19923;-95
2022/09/10 17:29:37;;;;;;;;;;;;;;;;;;6239611;22;20410;-96
2022/09/10 17:32:04;;;;;;;;;;;;;;;;;;6241314;22;20003;-95
2022/09/10 17:34:32;;;;;;;;;;;;;;;;;;6266744;22;20342;-95
2022/09/10 17:36:58;;;;;;;;;;;;;;;;;;6241577;22;19922;-96
2022/09/10 17:39:33;;;;;;;;;;;;;;;;;;6241576;22;20040;-95
2022/09/10 17:42:05;;;;;;;;;;;;;;;;;;6242288;22;19926;-94
2022/09/10 17:44:31;;;;;;;;;;;;;;;;;;6238103;22;20021;-95